Main page
METAR-TAF:

METAR-TAF

Airports :

Chengdu, China

Chengdu Shuangliu International Airport

latitude: 30-40N, longitude: 104-01E, elevation: 508 m

Current weather observation

The report was made 36 minutes ago, at 16:00 UTC
Wind 2 kt from variable directions
Temperature 11°C
Humidity 76%
Pressure 1028 hPa
Visibility 10 km or more
Scattered clouds at a height of 4000 ft

METAR: ZUUU 241600Z VRB01MPS 9999 SCT040 11/07 Q1028 NOSIG

Time: 00:36 (16:36 UTC)

Forecast

The report was made 8 hours and 22 minutes ago, at 08:14 UTC
Forecast valid from 24 at 12 UTC to 25 at 12 UTC
Wind 6 kt from the North/Northeast
Visibility: 5000 m
Scattered clouds at a height of 5000 ft
mist
Becoming
from 24 at 22 UTC to 24 at 23 UTC
Visibility: 2300 m
Becoming
from 25 at 01 UTC to 25 at 02 UTC
Visibility: 5000 m

TAF: ZUUU 240814Z 2412/2512 02003MPS 5000 BR SCT050 TX16/2507Z TN06/2423Z BECMG 2422/2423 2300 BECMG 2501/2502 5000

Weather observations and forecasts of more than 4000 airports (METAR and TAF reports).

The available stations are represented by yellow and red dots on the map.

Hover mouse over dot to see the name of the station.

Then click to see weather observations and forecasts.

To change the map : click on the green buttons with a black cross to zoom in, on the green button with a dash to zoom out, or on the green arrows for adjacent maps.


METAR-TAF: